sensor_id;sensor_type;location;lat;lon;timestamp;P1;durP1;ratioP1;P2;durP2;ratioP2
43990;SDS011;29654;50.784;20.604;2023-02-02T00:02:18;9.63;;;7.10;;
43990;SDS011;29654;50.784;20.604;2023-02-02T00:07:21;8.85;;;7.47;;
43990;SDS011;29654;50.784;20.604;2023-02-02T00:12:24;9.18;;;7.65;;
43990;SDS011;29654;50.784;20.604;2023-02-02T00:17:28;11.23;;;7.90;;
43990;SDS011;29654;50.784;20.604;2023-02-02T00:22:31;9.20;;;7.03;;
43990;SDS011;29654;50.784;20.604;2023-02-02T00:27:34;9.38;;;6.90;;
43990;SDS011;29654;50.784;20.604;2023-02-02T00:32:38;7.88;;;6.50;;
43990;SDS011;29654;50.784;20.604;2023-02-02T00:37:41;7.97;;;6.20;;
43990;SDS011;29654;50.784;20.604;2023-02-02T00:42:43;8.68;;;6.90;;
43990;SDS011;29654;50.784;20.604;2023-02-02T00:47:51;8.70;;;6.30;;
43990;SDS011;29654;50.784;20.604;2023-02-02T00:52:53;7.60;;;5.97;;
43990;SDS011;29654;50.784;20.604;2023-02-02T00:57:57;7.38;;;5.35;;
43990;SDS011;29654;50.784;20.604;2023-02-02T01:03:01;5.93;;;4.97;;
43990;SDS011;29654;50.784;20.604;2023-02-02T01:08:06;6.00;;;4.57;;
43990;SDS011;29654;50.784;20.604;2023-02-02T01:13:08;7.47;;;4.88;;
43990;SDS011;29654;50.784;20.604;2023-02-02T01:18:12;5.25;;;4.35;;
43990;SDS011;29654;50.784;20.604;2023-02-02T01:23:15;4.30;;;3.78;;
43990;SDS011;29654;50.784;20.604;2023-02-02T01:28:17;6.45;;;3.70;;
43990;SDS011;29654;50.784;20.604;2023-02-02T01:33:22;3.22;;;2.80;;
43990;SDS011;29654;50.784;20.604;2023-02-02T01:38:25;2.83;;;2.63;;
43990;SDS011;29654;50.784;20.604;2023-02-02T01:43:29;3.25;;;2.92;;
43990;SDS011;29654;50.784;20.604;2023-02-02T01:48:57;3.53;;;2.70;;
43990;SDS011;29654;50.784;20.604;2023-02-02T01:54:05;3.50;;;2.70;;
43990;SDS011;29654;50.784;20.604;2023-02-02T01:59:10;2.85;;;2.55;;
43990;SDS011;29654;50.784;20.604;2023-02-02T02:04:16;4.40;;;2.45;;
43990;SDS011;29654;50.784;20.604;2023-02-02T02:09:20;3.38;;;2.38;;
43990;SDS011;29654;50.784;20.604;2023-02-02T02:14:22;4.53;;;2.63;;
43990;SDS011;29654;50.784;20.604;2023-02-02T02:26:02;3.55;;;2.30;;
43990;SDS011;29654;50.784;20.604;2023-02-02T02:31:47;2.83;;;2.58;;
43990;SDS011;29654;50.784;20.604;2023-02-02T02:37:04;2.22;;;2.00;;
43990;SDS011;29654;50.784;20.604;2023-02-02T02:42:14;4.82;;;2.45;;
43990;SDS011;29654;50.784;20.604;2023-02-02T02:47:24;3.83;;;3.03;;
43990;SDS011;29654;50.784;20.604;2023-02-02T02:52:30;3.83;;;2.53;;
43990;SDS011;29654;50.784;20.604;2023-02-02T02:57:37;4.22;;;2.40;;
43990;SDS011;29654;50.784;20.604;2023-02-02T03:02:56;3.20;;;2.33;;
43990;SDS011;29654;50.784;20.604;2023-02-02T03:08:10;2.88;;;2.05;;
43990;SDS011;29654;50.784;20.604;2023-02-02T03:13:20;2.72;;;1.77;;
43990;SDS011;29654;50.784;20.604;2023-02-02T03:18:25;1.90;;;1.60;;
43990;SDS011;29654;50.784;20.604;2023-02-02T03:23:30;3.22;;;1.80;;
43990;SDS011;29654;50.784;20.604;2023-02-02T03:28:33;2.67;;;2.13;;
43990;SDS011;29654;50.784;20.604;2023-02-02T03:33:37;3.13;;;1.77;;
43990;SDS011;29654;50.784;20.604;2023-02-02T03:38:40;4.38;;;2.10;;
43990;SDS011;29654;50.784;20.604;2023-02-02T03:43:42;3.15;;;1.85;;
43990;SDS011;29654;50.784;20.604;2023-02-02T03:48:46;2.53;;;1.67;;
43990;SDS011;29654;50.784;20.604;2023-02-02T03:53:49;3.45;;;1.75;;
43990;SDS011;29654;50.784;20.604;2023-02-02T03:58:51;4.30;;;2.40;;
43990;SDS011;29654;50.784;20.604;2023-02-02T04:03:55;3.83;;;1.88;;
43990;SDS011;29654;50.784;20.604;2023-02-02T04:08:59;3.13;;;1.65;;
43990;SDS011;29654;50.784;20.604;2023-02-02T04:14:01;3.60;;;1.77;;
43990;SDS011;29654;50.784;20.604;2023-02-02T04:19:05;2.83;;;1.50;;
43990;SDS011;29654;50.784;20.604;2023-02-02T04:24:09;5.80;;;1.80;;
43990;SDS011;29654;50.784;20.604;2023-02-02T04:29:13;4.57;;;1.58;;
43990;SDS011;29654;50.784;20.604;2023-02-02T04:34:17;3.92;;;1.65;;
43990;SDS011;29654;50.784;20.604;2023-02-02T04:39:20;3.10;;;1.63;;
43990;SDS011;29654;50.784;20.604;2023-02-02T04:44:22;3.95;;;1.45;;
43990;SDS011;29654;50.784;20.604;2023-02-02T04:49:26;2.00;;;1.17;;
43990;SDS011;29654;50.784;20.604;2023-02-02T04:54:29;3.95;;;1.60;;
43990;SDS011;29654;50.784;20.604;2023-02-02T04:59:33;3.65;;;1.42;;
43990;SDS011;29654;50.784;20.604;2023-02-02T05:04:36;2.50;;;1.20;;
43990;SDS011;29654;50.784;20.604;2023-02-02T05:09:39;4.28;;;1.83;;
43990;SDS011;29654;50.784;20.604;2023-02-02T05:14:41;4.18;;;1.48;;
43990;SDS011;29654;50.784;20.604;2023-02-02T05:19:45;3.75;;;1.65;;
43990;SDS011;29654;50.784;20.604;2023-02-02T05:24:48;4.55;;;1.77;;
43990;SDS011;29654;50.784;20.604;2023-02-02T05:29:54;4.45;;;2.08;;
43990;SDS011;29654;50.784;20.604;2023-02-02T05:34:58;5.78;;;2.20;;
43990;SDS011;29654;50.784;20.604;2023-02-02T05:40:01;7.43;;;1.98;;
43990;SDS011;29654;50.784;20.604;2023-02-02T05:45:04;4.93;;;1.70;;
43990;SDS011;29654;50.784;20.604;2023-02-02T05:50:09;4.55;;;1.90;;
43990;SDS011;29654;50.784;20.604;2023-02-02T05:55:12;2.95;;;1.88;;
43990;SDS011;29654;50.784;20.604;2023-02-02T06:00:14;4.95;;;2.03;;
43990;SDS011;29654;50.784;20.604;2023-02-02T06:05:19;6.88;;;1.80;;
43990;SDS011;29654;50.784;20.604;2023-02-02T06:10:23;3.33;;;1.90;;
43990;SDS011;29654;50.784;20.604;2023-02-02T06:15:25;6.13;;;1.90;;
43990;SDS011;29654;50.784;20.604;2023-02-02T06:20:30;3.35;;;1.92;;
43990;SDS011;29654;50.784;20.604;2023-02-02T06:25:33;3.97;;;1.90;;
43990;SDS011;29654;50.784;20.604;2023-02-02T06:30:35;6.82;;;1.90;;
43990;SDS011;29654;50.784;20.604;2023-02-02T06:35:39;4.13;;;1.77;;
43990;SDS011;29654;50.784;20.604;2023-02-02T06:40:42;3.80;;;1.58;;
43990;SDS011;29654;50.784;20.604;2023-02-02T06:45:44;2.05;;;1.50;;
43990;SDS011;29654;50.784;20.604;2023-02-02T06:50:48;3.28;;;1.77;;
43990;SDS011;29654;50.784;20.604;2023-02-02T06:55:51;3.45;;;1.73;;
43990;SDS011;29654;50.784;20.604;2023-02-02T07:00:54;4.53;;;1.77;;
43990;SDS011;29654;50.784;20.604;2023-02-02T07:06:13;4.25;;;1.73;;
43990;SDS011;29654;50.784;20.604;2023-02-02T07:11:17;5.05;;;2.03;;
43990;SDS011;29654;50.784;20.604;2023-02-02T07:16:20;5.03;;;2.00;;
43990;SDS011;29654;50.784;20.604;2023-02-02T07:21:25;6.28;;;2.63;;
43990;SDS011;29654;50.784;20.604;2023-02-02T07:26:29;4.05;;;2.20;;
43990;SDS011;29654;50.784;20.604;2023-02-02T07:31:32;5.47;;;2.08;;
43990;SDS011;29654;50.784;20.604;2023-02-02T07:36:36;5.10;;;1.75;;
43990;SDS011;29654;50.784;20.604;2023-02-02T07:41:39;4.60;;;2.10;;
43990;SDS011;29654;50.784;20.604;2023-02-02T07:46:49;5.25;;;2.72;;
43990;SDS011;29654;50.784;20.604;2023-02-02T07:51:53;5.00;;;2.90;;
43990;SDS011;29654;50.784;20.604;2023-02-02T07:56:57;4.90;;;2.67;;
43990;SDS011;29654;50.784;20.604;2023-02-02T08:02:01;6.50;;;2.33;;
43990;SDS011;29654;50.784;20.604;2023-02-02T08:07:05;4.18;;;2.88;;
43990;SDS011;29654;50.784;20.604;2023-02-02T08:12:07;5.10;;;2.92;;
43990;SDS011;29654;50.784;20.604;2023-02-02T08:17:10;7.15;;;2.97;;
43990;SDS011;29654;50.784;20.604;2023-02-02T08:22:14;4.55;;;2.50;;
43990;SDS011;29654;50.784;20.604;2023-02-02T08:27:16;3.83;;;2.30;;
43990;SDS011;29654;50.784;20.604;2023-02-02T08:32:19;4.63;;;2.28;;
43990;SDS011;29654;50.784;20.604;2023-02-02T08:37:23;3.60;;;2.28;;
43990;SDS011;29654;50.784;20.604;2023-02-02T08:42:25;3.40;;;2.45;;
43990;SDS011;29654;50.784;20.604;2023-02-02T08:47:28;2.67;;;2.08;;
43990;SDS011;29654;50.784;20.604;2023-02-02T08:52:32;2.58;;;2.05;;
43990;SDS011;29654;50.784;20.604;2023-02-02T08:57:35;2.65;;;1.63;;
43990;SDS011;29654;50.784;20.604;2023-02-02T09:02:37;3.10;;;1.58;;
43990;SDS011;29654;50.784;20.604;2023-02-02T09:07:41;3.47;;;1.92;;
43990;SDS011;29654;50.784;20.604;2023-02-02T09:12:44;2.83;;;1.77;;
43990;SDS011;29654;50.784;20.604;2023-02-02T09:17:46;1.98;;;1.60;;
43990;SDS011;29654;50.784;20.604;2023-02-02T09:22:50;1.85;;;1.55;;
43990;SDS011;29654;50.784;20.604;2023-02-02T09:27:55;2.15;;;1.42;;
43990;SDS011;29654;50.784;20.604;2023-02-02T09:32:58;2.15;;;1.58;;
43990;SDS011;29654;50.784;20.604;2023-02-02T09:38:02;2.03;;;1.83;;
43990;SDS011;29654;50.784;20.604;2023-02-02T09:43:05;2.65;;;1.95;;
43990;SDS011;29654;50.784;20.604;2023-02-02T09:48:24;1.95;;;1.50;;
43990;SDS011;29654;50.784;20.604;2023-02-02T09:53:38;2.60;;;1.70;;
43990;SDS011;29654;50.784;20.604;2023-02-02T09:58:48;1.33;;;1.15;;
43990;SDS011;29654;50.784;20.604;2023-02-02T10:03:58;1.70;;;1.40;;
43990;SDS011;29654;50.784;20.604;2023-02-02T10:09:11;2.13;;;1.63;;
43990;SDS011;29654;50.784;20.604;2023-02-02T10:14:30;2.00;;;1.23;;
43990;SDS011;29654;50.784;20.604;2023-02-02T10:19:37;1.52;;;1.00;;
43990;SDS011;29654;50.784;20.604;2023-02-02T10:24:42;1.92;;;1.40;;
43990;SDS011;29654;50.784;20.604;2023-02-02T10:29:46;1.25;;;1.10;;
43990;SDS011;29654;50.784;20.604;2023-02-02T10:34:59;1.38;;;1.27;;
43990;SDS011;29654;50.784;20.604;2023-02-02T10:40:22;1.63;;;1.00;;
43990;SDS011;29654;50.784;20.604;2023-02-02T10:45:41;1.27;;;1.10;;
43990;SDS011;29654;50.784;20.604;2023-02-02T10:50:46;2.17;;;1.23;;
43990;SDS011;29654;50.784;20.604;2023-02-02T10:55:53;3.33;;;1.60;;
43990;SDS011;29654;50.784;20.604;2023-02-02T11:01:02;3.60;;;1.55;;
43990;SDS011;29654;50.784;20.604;2023-02-02T11:06:07;2.67;;;1.95;;
43990;SDS011;29654;50.784;20.604;2023-02-02T11:11:31;2.80;;;1.80;;
43990;SDS011;29654;50.784;20.604;2023-02-02T11:16:40;3.72;;;2.47;;
43990;SDS011;29654;50.784;20.604;2023-02-02T11:21:44;4.22;;;2.50;;
43990;SDS011;29654;50.784;20.604;2023-02-02T11:26:52;3.17;;;2.50;;
43990;SDS011;29654;50.784;20.604;2023-02-02T11:31:57;3.53;;;2.45;;
43990;SDS011;29654;50.784;20.604;2023-02-02T11:37:19;3.17;;;2.20;;
43990;SDS011;29654;50.784;20.604;2023-02-02T11:42:24;3.25;;;2.15;;
43990;SDS011;29654;50.784;20.604;2023-02-02T11:47:28;2.38;;;1.80;;
43990;SDS011;29654;50.784;20.604;2023-02-02T11:52:33;2.47;;;1.67;;
43990;SDS011;29654;50.784;20.604;2023-02-02T11:57:41;3.20;;;1.60;;
43990;SDS011;29654;50.784;20.604;2023-02-02T12:03:30;3.88;;;1.67;;
43990;SDS011;29654;50.784;20.604;2023-02-02T12:08:35;1.58;;;1.48;;
43990;SDS011;29654;50.784;20.604;2023-02-02T12:19:16;1.92;;;1.80;;
43990;SDS011;29654;50.784;20.604;2023-02-02T12:24:38;1.50;;;1.40;;
43990;SDS011;29654;50.784;20.604;2023-02-02T12:30:01;1.50;;;1.30;;
43990;SDS011;29654;50.784;20.604;2023-02-02T12:35:30;1.83;;;1.50;;
43990;SDS011;29654;50.784;20.604;2023-02-02T12:41:02;1.95;;;1.70;;
43990;SDS011;29654;50.784;20.604;2023-02-02T12:46:35;2.20;;;1.95;;
43990;SDS011;29654;50.784;20.604;2023-02-02T12:52:13;2.05;;;1.90;;
43990;SDS011;29654;50.784;20.604;2023-02-02T12:57:29;1.92;;;1.58;;
43990;SDS011;29654;50.784;20.604;2023-02-02T13:02:48;2.45;;;2.05;;
43990;SDS011;29654;50.784;20.604;2023-02-02T13:08:05;2.60;;;1.80;;
43990;SDS011;29654;50.784;20.604;2023-02-02T13:13:13;2.08;;;1.70;;
43990;SDS011;29654;50.784;20.604;2023-02-02T13:18:22;2.10;;;1.85;;
43990;SDS011;29654;50.784;20.604;2023-02-02T13:23:30;2.30;;;2.10;;
43990;SDS011;29654;50.784;20.604;2023-02-02T13:28:37;2.97;;;2.10;;
43990;SDS011;29654;50.784;20.604;2023-02-02T13:33:46;2.78;;;1.92;;
43990;SDS011;29654;50.784;20.604;2023-02-02T13:38:59;2.22;;;2.03;;
43990;SDS011;29654;50.784;20.604;2023-02-02T13:44:06;2.10;;;1.90;;
43990;SDS011;29654;50.784;20.604;2023-02-02T13:49:16;2.50;;;2.00;;
43990;SDS011;29654;50.784;20.604;2023-02-02T14:00:11;2.83;;;2.05;;
43990;SDS011;29654;50.784;20.604;2023-02-02T14:05:22;3.58;;;3.28;;
43990;SDS011;29654;50.784;20.604;2023-02-02T14:10:29;2.00;;;1.83;;
43990;SDS011;29654;50.784;20.604;2023-02-02T14:15:36;3.72;;;2.60;;
43990;SDS011;29654;50.784;20.604;2023-02-02T14:20:43;6.93;;;4.60;;
43990;SDS011;29654;50.784;20.604;2023-02-02T14:25:48;5.38;;;3.83;;
43990;SDS011;29654;50.784;20.604;2023-02-02T14:31:15;5.38;;;3.88;;
43990;SDS011;29654;50.784;20.604;2023-02-02T14:36:52;8.70;;;5.43;;
43990;SDS011;29654;50.784;20.604;2023-02-02T14:42:25;5.10;;;3.75;;
43990;SDS011;29654;50.784;20.604;2023-02-02T14:47:59;3.42;;;3.08;;
43990;SDS011;29654;50.784;20.604;2023-02-02T14:53:05;4.05;;;3.30;;
43990;SDS011;29654;50.784;20.604;2023-02-02T14:58:20;5.90;;;2.80;;
43990;SDS011;29654;50.784;20.604;2023-02-02T15:03:32;2.78;;;2.30;;
43990;SDS011;29654;50.784;20.604;2023-02-02T15:14:30;3.72;;;2.40;;
43990;SDS011;29654;50.784;20.604;2023-02-02T15:19:38;5.13;;;4.03;;
43990;SDS011;29654;50.784;20.604;2023-02-02T15:24:45;2.78;;;2.05;;
43990;SDS011;29654;50.784;20.604;2023-02-02T15:29:50;4.25;;;2.33;;
43990;SDS011;29654;50.784;20.604;2023-02-02T15:34:57;3.90;;;2.03;;
43990;SDS011;29654;50.784;20.604;2023-02-02T15:40:05;2.72;;;2.30;;
43990;SDS011;29654;50.784;20.604;2023-02-02T15:45:31;3.03;;;1.92;;
43990;SDS011;29654;50.784;20.604;2023-02-02T15:50:43;2.22;;;1.95;;
43990;SDS011;29654;50.784;20.604;2023-02-02T15:55:48;8.45;;;4.47;;
43990;SDS011;29654;50.784;20.604;2023-02-02T16:00:54;2.70;;;1.98;;
43990;SDS011;29654;50.784;20.604;2023-02-02T16:05:59;2.17;;;1.98;;
43990;SDS011;29654;50.784;20.604;2023-02-02T16:11:06;2.78;;;2.50;;
43990;SDS011;29654;50.784;20.604;2023-02-02T16:16:21;2.90;;;2.28;;
43990;SDS011;29654;50.784;20.604;2023-02-02T16:21:25;3.08;;;2.60;;
43990;SDS011;29654;50.784;20.604;2023-02-02T16:26:31;4.40;;;2.67;;
43990;SDS011;29654;50.784;20.604;2023-02-02T16:31:35;3.92;;;3.50;;
43990;SDS011;29654;50.784;20.604;2023-02-02T16:36:38;3.60;;;2.50;;
43990;SDS011;29654;50.784;20.604;2023-02-02T16:41:42;3.20;;;2.92;;
43990;SDS011;29654;50.784;20.604;2023-02-02T16:46:48;3.70;;;3.00;;
43990;SDS011;29654;50.784;20.604;2023-02-02T16:52:05;3.95;;;3.13;;
43990;SDS011;29654;50.784;20.604;2023-02-02T16:57:15;4.07;;;3.05;;
43990;SDS011;29654;50.784;20.604;2023-02-02T17:02:24;2.53;;;2.33;;
43990;SDS011;29654;50.784;20.604;2023-02-02T17:07:30;2.30;;;2.10;;
43990;SDS011;29654;50.784;20.604;2023-02-02T17:12:36;3.83;;;2.60;;
43990;SDS011;29654;50.784;20.604;2023-02-02T17:17:38;4.60;;;3.05;;
43990;SDS011;29654;50.784;20.604;2023-02-02T17:22:42;3.30;;;2.33;;
43990;SDS011;29654;50.784;20.604;2023-02-02T17:27:48;3.75;;;2.95;;
43990;SDS011;29654;50.784;20.604;2023-02-02T17:32:50;3.45;;;3.05;;
43990;SDS011;29654;50.784;20.604;2023-02-02T17:37:53;4.35;;;2.90;;
43990;SDS011;29654;50.784;20.604;2023-02-02T17:42:58;5.30;;;3.67;;
43990;SDS011;29654;50.784;20.604;2023-02-02T17:48:01;3.45;;;3.13;;
43990;SDS011;29654;50.784;20.604;2023-02-02T17:53:07;3.42;;;2.47;;
43990;SDS011;29654;50.784;20.604;2023-02-02T17:58:14;3.05;;;2.45;;
43990;SDS011;29654;50.784;20.604;2023-02-02T18:03:18;3.50;;;2.97;;
43990;SDS011;29654;50.784;20.604;2023-02-02T18:08:23;4.40;;;3.17;;
43990;SDS011;29654;50.784;20.604;2023-02-02T18:13:27;5.97;;;4.70;;
43990;SDS011;29654;50.784;20.604;2023-02-02T18:18:29;5.95;;;4.50;;
43990;SDS011;29654;50.784;20.604;2023-02-02T18:23:32;6.88;;;4.63;;
43990;SDS011;29654;50.784;20.604;2023-02-02T18:28:37;9.30;;;5.70;;
43990;SDS011;29654;50.784;20.604;2023-02-02T18:33:40;6.03;;;4.32;;
43990;SDS011;29654;50.784;20.604;2023-02-02T18:38:43;6.93;;;5.03;;
43990;SDS011;29654;50.784;20.604;2023-02-02T18:43:49;7.65;;;5.63;;
43990;SDS011;29654;50.784;20.604;2023-02-02T18:48:55;10.80;;;9.05;;
43990;SDS011;29654;50.784;20.604;2023-02-02T18:53:57;9.73;;;6.63;;
43990;SDS011;29654;50.784;20.604;2023-02-02T18:59:01;10.63;;;6.80;;
43990;SDS011;29654;50.784;20.604;2023-02-02T19:04:05;8.35;;;4.93;;
43990;SDS011;29654;50.784;20.604;2023-02-02T19:09:08;8.32;;;6.28;;
43990;SDS011;29654;50.784;20.604;2023-02-02T19:14:14;10.45;;;7.35;;
43990;SDS011;29654;50.784;20.604;2023-02-02T19:19:21;12.90;;;8.05;;
43990;SDS011;29654;50.784;20.604;2023-02-02T19:24:26;10.25;;;6.18;;
43990;SDS011;29654;50.784;20.604;2023-02-02T19:29:41;7.45;;;5.47;;
43990;SDS011;29654;50.784;20.604;2023-02-02T19:34:44;9.45;;;5.53;;
43990;SDS011;29654;50.784;20.604;2023-02-02T19:39:47;13.50;;;7.15;;
43990;SDS011;29654;50.784;20.604;2023-02-02T19:44:52;9.20;;;4.68;;
43990;SDS011;29654;50.784;20.604;2023-02-02T19:49:54;5.30;;;4.20;;
43990;SDS011;29654;50.784;20.604;2023-02-02T19:54:57;6.38;;;4.72;;
43990;SDS011;29654;50.784;20.604;2023-02-02T20:00:05;6.20;;;4.10;;
43990;SDS011;29654;50.784;20.604;2023-02-02T20:05:20;5.13;;;3.85;;
43990;SDS011;29654;50.784;20.604;2023-02-02T20:10:25;6.60;;;5.20;;
43990;SDS011;29654;50.784;20.604;2023-02-02T20:15:32;5.72;;;4.63;;
43990;SDS011;29654;50.784;20.604;2023-02-02T20:20:38;5.93;;;4.85;;
43990;SDS011;29654;50.784;20.604;2023-02-02T20:25:43;5.63;;;4.97;;
43990;SDS011;29654;50.784;20.604;2023-02-02T20:30:47;6.45;;;4.35;;
43990;SDS011;29654;50.784;20.604;2023-02-02T20:35:49;7.00;;;4.53;;
43990;SDS011;29654;50.784;20.604;2023-02-02T20:40:52;8.65;;;4.20;;
43990;SDS011;29654;50.784;20.604;2023-02-02T20:45:57;5.88;;;4.50;;
43990;SDS011;29654;50.784;20.604;2023-02-02T20:50:59;7.57;;;5.50;;
43990;SDS011;29654;50.784;20.604;2023-02-02T20:56:02;7.20;;;4.60;;
43990;SDS011;29654;50.784;20.604;2023-02-02T21:01:07;8.77;;;4.97;;
43990;SDS011;29654;50.784;20.604;2023-02-02T21:06:09;9.93;;;5.78;;
43990;SDS011;29654;50.784;20.604;2023-02-02T21:11:12;11.88;;;7.55;;
43990;SDS011;29654;50.784;20.604;2023-02-02T21:16:16;10.07;;;6.10;;
43990;SDS011;29654;50.784;20.604;2023-02-02T21:21:18;8.27;;;5.22;;
43990;SDS011;29654;50.784;20.604;2023-02-02T21:26:22;5.85;;;4.90;;
43990;SDS011;29654;50.784;20.604;2023-02-02T21:31:30;7.45;;;5.63;;
43990;SDS011;29654;50.784;20.604;2023-02-02T21:36:35;7.78;;;5.50;;
43990;SDS011;29654;50.784;20.604;2023-02-02T21:41:39;7.10;;;4.90;;
43990;SDS011;29654;50.784;20.604;2023-02-02T21:46:44;6.97;;;5.13;;
43990;SDS011;29654;50.784;20.604;2023-02-02T21:51:50;9.07;;;5.10;;
43990;SDS011;29654;50.784;20.604;2023-02-02T21:56:56;5.93;;;4.85;;
43990;SDS011;29654;50.784;20.604;2023-02-02T22:02:08;5.63;;;4.55;;
43990;SDS011;29654;50.784;20.604;2023-02-02T22:07:36;8.15;;;4.82;;
43990;SDS011;29654;50.784;20.604;2023-02-02T22:12:40;8.55;;;5.40;;
43990;SDS011;29654;50.784;20.604;2023-02-02T22:17:44;5.35;;;4.53;;
43990;SDS011;29654;50.784;20.604;2023-02-02T22:22:48;5.95;;;4.28;;
43990;SDS011;29654;50.784;20.604;2023-02-02T22:27:53;7.10;;;4.40;;
43990;SDS011;29654;50.784;20.604;2023-02-02T22:32:59;4.38;;;3.97;;
43990;SDS011;29654;50.784;20.604;2023-02-02T22:38:02;6.93;;;4.50;;
43990;SDS011;29654;50.784;20.604;2023-02-02T22:43:06;5.68;;;2.92;;
43990;SDS011;29654;50.784;20.604;2023-02-02T22:48:10;5.45;;;3.88;;
43990;SDS011;29654;50.784;20.604;2023-02-02T22:53:13;4.85;;;3.80;;
43990;SDS011;29654;50.784;20.604;2023-02-02T22:58:15;4.25;;;3.33;;
43990;SDS011;29654;50.784;20.604;2023-02-02T23:03:19;4.35;;;3.10;;
43990;SDS011;29654;50.784;20.604;2023-02-02T23:08:22;4.97;;;3.88;;
43990;SDS011;29654;50.784;20.604;2023-02-02T23:13:24;5.38;;;3.83;;
43990;SDS011;29654;50.784;20.604;2023-02-02T23:18:28;6.35;;;4.13;;
43990;SDS011;29654;50.784;20.604;2023-02-02T23:23:31;5.07;;;3.70;;
43990;SDS011;29654;50.784;20.604;2023-02-02T23:28:33;5.28;;;4.32;;
43990;SDS011;29654;50.784;20.604;2023-02-02T23:33:37;5.95;;;3.90;;
43990;SDS011;29654;50.784;20.604;2023-02-02T23:38:40;4.75;;;3.75;;
43990;SDS011;29654;50.784;20.604;2023-02-02T23:43:43;4.53;;;3.80;;
43990;SDS011;29654;50.784;20.604;2023-02-02T23:48:47;4.22;;;3.60;;
43990;SDS011;29654;50.784;20.604;2023-02-02T23:53:49;5.70;;;4.00;;
43990;SDS011;29654;50.784;20.604;2023-02-02T23:58:52;3.35;;;2.67;;
